Map

Track Data

SID SEASON NUMBER BASIN SUBBASIN NAME ISO_TIME NATURE LAT LON WMO_WIND WMO_PRES WMO_AGENCY TRACK_TYPE DIST2LAND LANDFALL IFLAG USA_AGENCY USA_ATCF_ID USA_LAT USA_LON USA_RECORD USA_STATUS USA_WIND USA_PRES USA_SSHS USA_R34_NE USA_R34_SE USA_R34_SW USA_R34_NW USA_R50_NE USA_R50_SE USA_R50_SW USA_R50_NW USA_R64_NE USA_R64_SE USA_R64_SW USA_R64_NW USA_POCI USA_ROCI USA_RMW USA_EYE TOKYO_LAT TOKYO_LON TOKYO_GRADE TOKYO_WIND TOKYO_PRES TOKYO_R50_DIR TOKYO_R50_LONG TOKYO_R50_SHORT TOKYO_R30_DIR TOKYO_R30_LONG TOKYO_R30_SHORT TOKYO_LAND CMA_LAT CMA_LON CMA_CAT CMA_WIND CMA_PRES HKO_LAT HKO_LON HKO_CAT HKO_WIND HKO_PRES NEWDELHI_LAT NEWDELHI_LON NEWDELHI_GRADE NEWDELHI_WIND NEWDELHI_PRES NEWDELHI_CI NEWDELHI_DP NEWDELHI_POCI REUNION_LAT REUNION_LON REUNION_TYPE REUNION_WIND REUNION_PRES REUNION_TNUM REUNION_CI REUNION_RMW REUNION_R34_NE REUNION_R34_SE REUNION_R34_SW REUNION_R34_NW REUNION_R50_NE REUNION_R50_SE REUNION_R50_SW REUNION_R50_NW REUNION_R64_NE REUNION_R64_SE REUNION_R64_SW REUNION_R64_NW BOM_LAT BOM_LON BOM_TYPE BOM_WIND BOM_PRES BOM_TNUM BOM_CI BOM_RMW BOM_R34_NE BOM_R34_SE BOM_R34_SW BOM_R34_NW BOM_R50_NE BOM_R50_SE BOM_R50_SW BOM_R50_NW BOM_R64_NE BOM_R64_SE BOM_R64_SW BOM_R64_NW BOM_ROCI BOM_POCI BOM_EYE BOM_POS_METHOD BOM_PRES_METHOD NADI_LAT NADI_LON NADI_CAT NADI_WIND NADI_PRES WELLINGTON_LAT WELLINGTON_LON WELLINGTON_WIND WELLINGTON_PRES DS824_LAT DS824_LON DS824_STAGE DS824_WIND DS824_PRES TD9636_LAT TD9636_LON TD9636_STAGE TD9636_WIND TD9636_PRES TD9635_LAT TD9635_LON TD9635_WIND TD9635_PRES TD9635_ROCI NEUMANN_LAT NEUMANN_LON NEUMANN_CLASS NEUMANN_WIND NEUMANN_PRES MLC_LAT MLC_LON MLC_CLASS MLC_WIND MLC_PRES USA_GUST BOM_GUST BOM_GUST_PER REUNION_GUST REUNION_GUST_PER USA_SEAHGT USA_SEARAD_NE USA_SEARAD_SE USA_SEARAD_SW USA_SEARAD_NW STORM_SPEED STORM_DIR
1902035S13122 1902 7 SI WA NOT_NAMED 1902-02-03 12:00:00 NR -13.0000 122.100 main 328 328 __________O___ -1 -13.0000 122.100 7 1 0
1902035S13122 1902 7 SI WA NOT_NAMED 1902-02-03 15:00:00 NR -13.0219 122.117 main 328 328 __________P___ -1 -13.0219 122.117 7 1 145
1902035S13122 1902 7 SI WA NOT_NAMED 1902-02-03 18:00:00 NR -13.0650 122.138 main 338 333 __________P___ -1 -13.0650 122.138 7 1 160
1902035S13122 1902 7 SI WA NOT_NAMED 1902-02-03 21:00:00 NR -13.1506 122.164 main 344 344 __________P___ -1 -13.1506 122.164 7 2 168
1902035S13122 1902 7 SI WA NOT_NAMED 1902-02-04 00:00:00 NR -13.3000 122.200 main 349 333 __________O___ -1 -13.3000 122.200 7 4 168
1902035S13122 1902 7 SI WA NOT_NAMED 1902-02-04 03:00:00 NR -13.5256 122.247 main 333 302 __________P___ -1 -13.5256 122.247 7 5 169
1902035S13122 1902 7 SI WA NOT_NAMED 1902-02-04 06:00:00 NR -13.8050 122.300 main 302 272 __________P___ -1 -13.8050 122.300 7 6 170
1902035S13122 1902 7 SI WA NOT_NAMED 1902-02-04 09:00:00 NR -14.1069 122.353 main 272 241 __________P___ -1 -14.1069 122.353 7 6 171
1902035S13122 1902 7 SI WA NOT_NAMED 1902-02-04 12:00:00 NR -14.4000 122.400 main 241 219 __________O___ -1 -14.4000 122.400 7 5 171
1902035S13122 1902 7 SI WA NOT_NAMED 1902-02-04 15:00:00 NR -14.6394 122.440 main 219 184 __________P___ -1 -14.6394 122.440 7 5 172
1902035S13122 1902 7 SI WA NOT_NAMED 1902-02-04 18:00:00 NR -14.8650 122.472 main 184 162 __________P___ -1 -14.8650 122.472 7 4 172
1902035S13122 1902 7 SI WA NOT_NAMED 1902-02-04 21:00:00 NR -15.0831 122.493 main 162 140 __________P___ -1 -15.0831 122.493 7 4 178
1902035S13122 1902 7 SI WA NOT_NAMED 1902-02-05 00:00:00 NR -15.3000 122.500 main 140 119 __________O___ -1 -15.3000 122.500 7 5 177
1902035S13122 1902 7 SI WA NOT_NAMED 1902-02-05 03:00:00 NR -15.5372 122.493 main 119 89 __________P___ -1 -15.5372 122.493 7 5 183
1902035S13122 1902 7 SI WA NOT_NAMED 1902-02-05 06:00:00 NR -15.7725 122.473 main 89 77 __________P___ -1 -15.7725 122.473 7 5 187
1902035S13122 1902 7 SI WA NOT_NAMED 1902-02-05 09:00:00 NR -15.9966 122.440 main 77 61 __________P___ -1 -15.9966 122.440 7 4 189
1902035S13122 1902 7 SI WA NOT_NAMED 1902-02-05 12:00:00 NR -16.2000 122.400 main 61 46 __________O___ -1 -16.2000 122.400 7 4 192
1902035S13122 1902 7 SI WA NOT_NAMED 1902-02-05 15:00:00 NR -16.3756 122.361 main 46 46 __________P___ -1 -16.3756 122.361 7 3 194
1902035S13122 1902 7 SI WA NOT_NAMED 1902-02-05 18:00:00 NR -16.5300 122.315 main 48 30 __________P___ -1 -16.5300 122.315 7 3 198
1902035S13122 1902 7 SI WA NOT_NAMED 1902-02-05 21:00:00 NR -16.6694 122.261 main 30 30 __________P___ -1 -16.6694 122.261 7 3 203
1902035S13122 1902 7 SI WA NOT_NAMED 1902-02-06 00:00:00 NR -16.8000 122.200 main 33 24 __________O___ -1 -16.8000 122.200 7 3 199
1902035S13122 1902 7 SI WA NOT_NAMED 1902-02-06 03:00:00 NR -16.9361 122.156 main 24 15 __________P___ -1 -16.9361 122.156 7 3 200
1902035S13122 1902 7 SI WA NOT_NAMED 1902-02-06 06:00:00 NR -17.0648 122.102 main 21 21 __________P___ -1 -17.0648 122.102 7 3 208
1902035S13122 1902 7 SI WA NOT_NAMED 1902-02-06 09:00:00 NR -17.1861 122.022 main 24 21 __________P___ -1 -17.1861 122.022 7 3 219
1902035S13122 1902 7 SI WA NOT_NAMED 1902-02-06 12:00:00 NR -17.3000 121.900 main 31 31 __________O___ -1 -17.3000 121.900 7 4 233
1902035S13122 1902 7 SI WA NOT_NAMED 1902-02-06 15:00:00 NR -17.4073 121.714 main 47 47 __________P___ -1 -17.4073 121.714 7 4 242
1902035S13122 1902 7 SI WA NOT_NAMED 1902-02-06 18:00:00 NR -17.5077 121.488 main 64 64 __________P___ -1 -17.5077 121.488 7 5 246
1902035S13122 1902 7 SI WA NOT_NAMED 1902-02-06 21:00:00 NR -17.6042 121.242 main 95 95 __________P___ -1 -17.6042 121.242 7 5 248
1902035S13122 1902 7 SI WA NOT_NAMED 1902-02-07 00:00:00 NR -17.7000 121.000 main 117 117 __________O___ -1 -17.7000 121.000 7 5 247
1902035S13122 1902 7 SI WA NOT_NAMED 1902-02-07 03:00:00 NR -17.7835 120.809 main 130 130 __________P___ -1 -17.7835 120.809 7 4 245
1902035S13122 1902 7 SI WA NOT_NAMED 1902-02-07 06:00:00 NR -17.8697 120.622 main 140 140 __________P___ -1 -17.8697 120.622 7 4 243
1902035S13122 1902 7 SI WA NOT_NAMED 1902-02-07 09:00:00 NR -17.9710 120.424 main 152 152 __________P___ -1 -17.9710 120.424 7 5 240
1902035S13122 1902 7 SI WA NOT_NAMED 1902-02-07 12:00:00 NR -18.1000 120.200 main 167 167 __________O___ -1 -18.1000 120.200 7 6 238
1902035S13122 1902 7 SI WA NOT_NAMED 1902-02-07 15:00:00 NR -18.2673 119.921 main 177 168 __________P___ -1 -18.2673 119.921 7 7 237
1902035S13122 1902 7 SI WA NOT_NAMED 1902-02-07 18:00:00 NR -18.4627 119.615 main 168 154 __________P___ -1 -18.4627 119.615 7 7 235
1902035S13122 1902 7 SI WA NOT_NAMED 1902-02-07 21:00:00 NR -18.6767 119.302 main 154 134 __________P___ -1 -18.6767 119.302 7 7 233
1902035S13122 1902 7 SI WA NOT_NAMED 1902-02-08 00:00:00 NR -18.9000 119.000 main 134 116 __________O___ -1 -18.9000 119.000 7 7 231
1902035S13122 1902 7 SI WA NOT_NAMED 1902-02-08 03:00:00 NR -19.1176 118.735 main 119 103 __________P___ -1 -19.1176 118.735 7 7 228
1902035S13122 1902 7 SI WA NOT_NAMED 1902-02-08 06:00:00 NR -19.3422 118.485 main 109 89 __________P___ -1 -19.3422 118.485 7 7 226
1902035S13122 1902 7 SI WA NOT_NAMED 1902-02-08 09:00:00 NR -19.5708 118.242 main 89 67 __________P___ -1 -19.5708 118.242 7 6 225
1902035S13122 1902 7 SI WA NOT_NAMED 1902-02-08 12:00:00 NR -19.8000 118.000 main 67 59 __________O___ -1 -19.8000 118.000 7 6 231
1902035S13122 1902 7 SI WA NOT_NAMED 1902-02-08 15:00:00 NR -19.9519 117.745 main 59 54 __________P___ -1 -19.9519 117.745 7 6 237
1902035S13122 1902 7 SI WA NOT_NAMED 1902-02-08 18:00:00 NR -20.1150 117.491 main 61 45 __________P___ -1 -20.1150 117.491 7 6 230
1902035S13122 1902 7 SI WA NOT_NAMED 1902-02-08 21:00:00 NR -20.3456 117.242 main 44 0 __________P___ -1 -20.3456 117.242 7 7 218
1902035S13122 1902 7 SI WA NOT_NAMED 1902-02-09 00:00:00 NR -20.7000 117.000 main 0 0 __________O___ -1 -20.7000 117.000 7 10 209
1902035S13122 1902 7 SI WA NOT_NAMED 1902-02-09 03:00:00 NR -21.2580 116.701 main 0 0 __________P___ -1 -21.2580 116.701 7 14 204
1902035S13122 1902 7 SI WA NOT_NAMED 1902-02-09 06:00:00 NR -21.9378 116.419 main 0 0 __________P___ -1 -21.9378 116.419 7 15 198
1902035S13122 1902 7 SI WA NOT_NAMED 1902-02-09 09:00:00 NR -22.6736 116.202 main 0 0 __________P___ -1 -22.6736 116.202 7 15 191
1902035S13122 1902 7 SI WA NOT_NAMED 1902-02-09 12:00:00 NR -23.4000 116.100 main 0 0 __________O___ -1 -23.4000 116.100 7 13 188
1902035S13122 1902 7 SI WA NOT_NAMED 1902-02-09 15:00:00 NR -23.9974 116.016 main 0 0 __________P___ -1 -23.9974 116.016 7 12 181
1902035S13122 1902 7 SI WA NOT_NAMED 1902-02-09 18:00:00 NR -24.5782 116.074 main 0 0 __________P___ -1 -24.5782 116.074 7 12 166
1902035S13122 1902 7 SI WA NOT_NAMED 1902-02-09 21:00:00 NR -25.1702 116.345 main 0 0 __________P___ -1 -25.1702 116.345 7 14 149
1902035S13122 1902 7 SI WA NOT_NAMED 1902-02-10 00:00:00 NR -25.8000 116.900 main 0 0 __________O___ -1 -25.8000 116.900 7 19 137
1902035S13122 1902 7 SI WA NOT_NAMED 1902-02-10 03:00:00 NR -26.5437 117.775 main 0 0 __________P___ -1 -26.5437 117.775 7 24 130
1902035S13122 1902 7 SI WA NOT_NAMED 1902-02-10 06:00:00 NR -27.3121 118.944 main 0 0 __________P___ -1 -27.3121 118.944 7 27 124
1902035S13122 1902 7 SI WA NOT_NAMED 1902-02-10 09:00:00 NR -28.0487 120.317 main 0 0 __________P___ -1 -28.0487 120.317 7 29 119
1902035S13122 1902 7 SI WA NOT_NAMED 1902-02-10 12:00:00 NR -28.7000 121.800 main 0 0 __________O___ -1 -28.7000 121.800 7 27 113
1902035S13122 1902 7 SI WA NOT_NAMED 1902-02-10 15:00:00 NR -29.0857 123.111 main 0 0 __________P___ -1 -29.0857 123.111 7 25 106
1902035S13122 1902 7 SI WA NOT_NAMED 1902-02-10 18:00:00 NR -29.4013 124.516 main 0 0 __________P___ -1 -29.4013 124.516 7 27 105
1902035S13122 1902 7 SI WA NOT_NAMED 1902-02-10 21:00:00 NR -29.7670 126.085 main 0 0 __________P___ -1 -29.7670 126.085 7 31 107
1902035S13122 1902 7 SI WA NOT_NAMED 1902-02-11 00:00:00 NR -30.3000 127.900 main 0 0 __________O___ -1 -30.3000 127.900 7 37 111
1902035S13122 1902 7 SI WA NOT_NAMED 1902-02-11 03:00:00 NR -31.1314 130.105 main 0 0 __________P___ -1 -31.1314 130.105 7 44 114
1902035S13122 1902 7 SI WA NOT_NAMED 1902-02-11 06:00:00 NR -32.1130 132.589 main 14 0 __________P___ -1 -32.1130 132.589 7 48 115
1902035S13122 1902 7 SP EA NOT_NAMED 1902-02-11 09:00:00 NR -33.1604 135.231 main 0 0 __________P___ -1 -33.1604 135.231 7 49 115
1902035S13122 1902 7 SP EA NOT_NAMED 1902-02-11 12:00:00 NR -34.2000 137.900 main 0 0 __________O___ -1 -34.2000 137.900 7 48 115
1902035S13122 1902 7 SP EA NOT_NAMED 1902-02-11 15:00:00 NR -35.1822 140.486 main 0 0 __________P___ -1 -35.1822 140.486 7 46 115
1902035S13122 1902 7 SP EA NOT_NAMED 1902-02-11 18:00:00 NR -36.1066 143.004 main 0 0 __________P___ -1 -36.1066 143.004 7 44 114
1902035S13122 1902 7 SP EA NOT_NAMED 1902-02-11 21:00:00 NR -36.9791 145.495 main 0 0 __________P___ -1 -36.9791 145.495 7 43 113
1902035S13122 1902 7 SP EA NOT_NAMED 1902-02-12 00:00:00 NR -37.8000 148.000 main 0 __________O___ -1 -37.8000 148.000 7 43 113

About IBTrACS Database

This database is a web-friendly format of International Best Track Archive for Climate Stewardship (IBTrACS), a global best track data archive curated by NOAA dating back to 1842.

Updated: 2021-12-03